Time;durP1;ratioP1;P1;durP2;ratioP2;P2;SDS_P1;SDS_P2;PMS_P1;PMS_P2;Temp;Humidity;BMP_temperature;BMP_pressure;BME280_temperature;BME280_humidity;BME280_pressure;Samples;Min_cycle;Max_cycle;Signal;HPM_P1;HPM_P2
2021/06/27 00:00:29;;;;;;;9.23;8.32;;;;;;;19.24;70.69;100479.69;5012435;28;20053;-60
2021/06/27 00:02:56;;;;;;;9.57;8.65;;;;;;;19.17;71.03;100487.41;5010097;28;20064;-60
2021/06/27 00:05:25;;;;;;;10.73;8.68;;;;;;;19.15;71.24;100486.69;5006835;28;20049;-60
2021/06/27 00:07:52;;;;;;;9.65;8.65;;;;;;;19.09;71.10;100489.00;5011632;28;20053;-59
2021/06/27 00:10:24;;;;;;;9.60;8.63;;;;;;;19.09;71.57;100492.53;5022642;28;20523;-59
2021/06/27 00:12:50;;;;;;;9.88;8.98;;;;;;;19.09;71.31;100489.00;5014485;28;20042;-59
2021/06/27 00:15:21;;;;;;;10.07;9.07;;;;;;;19.10;71.58;100491.56;5017324;28;20550;-60
2021/06/27 00:17:48;;;;;;;;;;;;;;;19.12;71.36;100489.59;5005785;28;20054;-60
2021/06/27 00:20:19;;;;;;;11.98;8.93;;;;;;;19.09;71.48;100492.53;5017330;28;19932;-60
2021/06/27 00:22:46;;;;;;;10.70;9.57;;;;;;;19.08;71.61;100500.72;5017999;28;20064;-59
2021/06/27 00:25:14;;;;;;;9.82;8.77;;;;;;;19.04;71.67;100488.53;5016137;28;20064;-60
2021/06/27 00:27:44;;;;;;;10.30;9.13;;;;;;;19.02;71.79;100485.13;5022129;28;20500;-60
2021/06/27 00:30:11;;;;;;;10.35;9.35;;;;;;;18.99;71.75;100480.84;5021382;28;20049;-60
2021/06/27 00:32:38;;;;;;;9.95;8.95;;;;;;;18.95;71.79;100479.38;5019736;28;20073;-60
2021/06/27 00:35:07;;;;;;;10.88;8.82;;;;;;;18.93;72.05;100482.19;5014001;28;20045;-59
2021/06/27 00:37:34;;;;;;;9.77;8.77;;;;;;;18.89;71.70;100480.72;5030884;28;20048;-60
2021/06/27 00:40:01;;;;;;;10.07;8.80;;;;;;;18.86;71.84;100474.75;5034170;28;20091;-59
2021/06/27 00:42:27;;;;;;;10.52;8.50;;;;;;;18.81;72.08;100476.94;5032688;28;20051;-60
2021/06/27 00:44:54;;;;;;;10.57;8.90;;;;;;;18.80;71.91;100472.56;5023353;28;20663;-59
2021/06/27 00:47:29;;;;;;;10.52;8.68;;;;;;;18.76;71.99;100474.63;5020047;28;20969;-59
2021/06/27 00:49:56;;;;;;;9.77;8.80;;;;;;;18.76;72.54;100479.13;5022852;28;20586;-61
2021/06/27 00:52:23;;;;;;;9.82;8.82;;;;;;;18.75;72.38;100478.28;5016258;28;20064;-59
2021/06/27 00:54:49;;;;;;;9.77;8.43;;;;;;;18.75;72.54;100482.78;5012163;28;20132;-59
2021/06/27 00:57:16;;;;;;;10.75;9.35;;;;;;;18.70;72.37;100476.97;5021375;28;20060;-58
2021/06/27 00:59:43;;;;;;;9.57;8.68;;;;;;;18.65;72.44;100471.09;5014902;28;20676;-59
2021/06/27 01:02:10;;;;;;;10.77;8.65;;;;;;;18.67;72.88;100478.06;5014110;28;20060;-59
2021/06/27 01:04:37;;;;;;;9.35;8.32;;;;;;;18.66;72.55;100479.03;5019850;28;20115;-59
2021/06/27 01:07:06;;;;;;;9.55;8.52;;;;;;;18.65;73.07;100479.16;5013939;28;20075;-60
2021/06/27 01:09:33;;;;;;;8.57;7.68;;;;;;;18.64;72.86;100482.81;5016088;28;20191;-59
2021/06/27 01:12:01;;;;;;;9.25;8.32;;;;;;;18.61;72.68;100483.88;5025098;28;20056;-59
2021/06/27 01:14:27;;;;;;;8.85;7.88;;;;;;;18.57;72.94;100479.72;5009789;28;20061;-59
2021/06/27 01:16:54;;;;;;;11.25;8.52;;;;;;;18.54;73.22;100483.50;5016174;28;20060;-59
2021/06/27 01:19:21;;;;;;;8.98;8.05;;;;;;;18.51;73.15;100481.06;5018801;28;20052;-59
2021/06/27 01:21:52;;;;;;;10.95;8.48;;;;;;;18.48;73.55;100486.66;5004513;28;20087;-59
2021/06/27 01:24:20;;;;;;;10.23;9.18;;;;;;;18.45;73.66;100489.56;5021463;28;20049;-59
2021/06/27 01:26:47;;;;;;;10.18;9.07;;;;;;;18.42;73.87;100487.13;5014286;28;20060;-58
2021/06/27 01:29:16;;;;;;;11.48;9.20;;;;;;;18.39;73.86;100492.75;5018670;28;20503;-57
2021/06/27 01:31:46;;;;;;;10.45;8.75;;;;;;;18.34;74.30;100478.84;5020852;28;20056;-58
2021/06/27 01:34:13;;;;;;;10.60;9.10;;;;;;;18.32;74.28;100480.78;5021611;28;20046;-59
2021/06/27 01:36:40;;;;;;;10.70;8.75;;;;;;;18.32;74.58;100479.94;5018301;28;20041;-60
2021/06/27 01:39:07;;;;;;;11.43;9.40;;;;;;;18.33;74.72;100487.84;5019887;28;20045;-60
2021/06/27 01:41:33;;;;;;;9.45;7.80;;;;;;;18.34;74.50;100488.72;5017459;28;20098;-59
2021/06/27 01:44:00;;;;;;;11.93;8.70;;;;;;;18.33;74.60;100492.34;5017846;28;20060;-60
2021/06/27 01:46:26;;;;;;;9.82;8.82;;;;;;;18.31;74.95;100497.84;5025550;28;20045;-58
2021/06/27 01:48:53;;;;;;;10.55;8.88;;;;;;;18.30;74.94;100490.75;5021494;28;20099;-61
2021/06/27 01:51:19;;;;;;;10.85;8.63;;;;;;;18.31;74.82;100480.91;5022936;28;20069;-60
2021/06/27 01:53:46;;;;;;;11.43;9.13;;;;;;;18.31;74.89;100475.53;5028098;28;20493;-61
2021/06/27 01:56:12;;;;;;;9.95;8.85;;;;;;;18.33;75.02;100487.00;5021515;28;20145;-59
2021/06/27 01:58:50;;;;;;;9.95;8.63;;;;;;;18.31;75.12;100488.94;5018486;28;20058;-60
2021/06/27 02:01:25;;;;;;;11.25;9.02;;;;;;;18.33;75.28;100484.31;5021889;28;20049;-60
2021/06/27 02:03:53;;;;;;;9.77;8.77;;;;;;;18.34;75.08;100484.19;5022977;28;20077;-59
2021/06/27 02:06:21;;;;;;;12.10;8.73;;;;;;;18.37;74.95;100480.44;5025421;28;20592;-58
2021/06/27 02:08:47;;;;;;;10.00;8.68;;;;;;;18.37;74.91;100481.28;5024699;28;20049;-59
2021/06/27 02:11:17;;;;;;;11.07;8.90;;;;;;;18.38;74.82;100480.31;5019093;28;20045;-60
2021/06/27 02:13:45;;;;;;;10.60;9.50;;;;;;;18.40;74.80;100472.16;5021755;28;20437;-59
2021/06/27 02:16:11;;;;;;;12.25;9.60;;;;;;;18.38;74.44;100474.97;5015083;28;20058;-58
2021/06/27 02:18:40;;;;;;;9.48;8.45;;;;;;;18.39;74.86;100471.31;5021873;28;20049;-57
2021/06/27 02:21:13;;;;;;;10.55;9.35;;;;;;;18.39;74.38;100476.66;5021921;28;20053;-60
2021/06/27 02:23:41;;;;;;;9.80;8.85;;;;;;;18.38;74.26;100472.28;5026282;28;20057;-58
2021/06/27 02:26:08;;;;;;;10.18;8.80;;;;;;;18.39;74.29;100475.81;5020014;28;20524;-58
2021/06/27 02:28:35;;;;;;;10.52;9.48;;;;;;;18.38;74.45;100476.78;5020402;28;20524;-59
2021/06/27 02:31:04;;;;;;;10.70;9.48;;;;;;;18.39;74.29;100478.50;5020155;28;20079;-59
2021/06/27 02:33:30;;;;;;;9.25;8.32;;;;;;;18.35;74.20;100477.88;5024735;28;20057;-59
2021/06/27 02:35:57;;;;;;;12.35;9.43;;;;;;;18.37;74.38;100472.38;5022371;28;20054;-59
2021/06/27 02:38:24;;;;;;;9.75;8.48;;;;;;;18.36;74.41;100479.56;5020429;28;20056;-59
2021/06/27 02:40:51;;;;;;;11.80;9.25;;;;;;;18.35;74.39;100477.88;5030108;28;20051;-59
2021/06/27 02:43:18;;;;;;;10.80;8.70;;;;;;;18.35;74.42;100472.50;5017465;28;20052;-58
2021/06/27 02:45:46;;;;;;;9.77;8.82;;;;;;;18.31;74.44;100471.03;5016299;28;20068;-59
2021/06/27 02:48:13;;;;;;;10.98;9.00;;;;;;;18.29;74.50;100466.75;5021619;28;20050;-60
2021/06/27 02:50:40;;;;;;;11.18;9.73;;;;;;;18.28;74.72;100465.03;5026283;28;20068;-60
2021/06/27 02:53:09;;;;;;;10.63;9.50;;;;;;;18.26;74.79;100465.16;5022622;28;20401;-60
2021/06/27 02:55:36;;;;;;;11.88;9.48;;;;;;;18.26;74.89;100467.03;5019088;28;20057;-58
2021/06/27 02:58:03;;;;;;;10.43;9.13;;;;;;;18.24;74.58;100467.13;5016182;28;20053;-61
2021/06/27 03:00:30;;;;;;;10.13;9.07;;;;;;;18.23;74.87;100465.44;5020973;28;20050;-60
2021/06/27 03:02:58;;;;;;;11.10;8.93;;;;;;;18.19;74.77;100455.91;5015774;28;20085;-58
2021/06/27 03:05:25;;;;;;;10.02;8.90;;;;;;;18.16;74.91;100453.47;5012922;28;20752;-60
2021/06/27 03:07:51;;;;;;;11.48;9.07;;;;;;;18.13;75.02;100443.81;5013201;28;20637;-61
2021/06/27 03:10:19;;;;;;;10.88;9.27;;;;;;;18.15;75.23;100441.03;5017830;28;20042;-61
2021/06/27 03:12:48;;;;;;;10.98;9.45;;;;;;;18.15;74.95;100443.72;5009725;28;20061;-60
2021/06/27 03:15:19;;;;;;;10.70;9.60;;;;;;;18.09;75.08;100441.53;5020452;28;20049;-61
2021/06/27 03:17:46;;;;;;;10.63;9.13;;;;;;;18.07;75.29;100438.97;5016714;28;20060;-60
2021/06/27 03:20:14;;;;;;;13.35;9.75;;;;;;;18.09;75.13;100433.47;5025611;28;20063;-60
2021/06/27 03:22:44;;;;;;;14.25;9.45;;;;;;;18.11;74.97;100435.03;5018190;28;20049;-60
2021/06/27 03:25:11;;;;;;;11.20;9.50;;;;;;;18.14;75.09;100425.91;5017085;28;20056;-60
2021/06/27 03:27:37;;;;;;;9.88;8.82;;;;;;;18.14;74.86;100424.09;5016660;28;20061;-60
2021/06/27 03:30:06;;;;;;;10.82;9.25;;;;;;;18.15;74.37;100419.59;5016595;28;20152;-59
2021/06/27 03:32:33;;;;;;;12.95;9.52;;;;;;;18.13;74.63;100421.53;4999823;28;20077;-60
2021/06/27 03:35:00;;;;;;;11.15;9.15;;;;;;;18.12;74.47;100422.50;4995772;28;20082;-61
2021/06/27 03:37:26;;;;;;;12.40;10.07;;;;;;;18.09;74.45;100422.75;4998206;28;20069;-60
2021/06/27 03:39:53;;;;;;;10.93;9.25;;;;;;;18.07;74.79;100408.63;5001795;28;20053;-61
2021/06/27 03:42:19;;;;;;;11.85;9.43;;;;;;;18.05;74.65;100416.78;4999981;28;20057;-60
2021/06/27 03:44:46;;;;;;;10.55;9.45;;;;;;;17.99;74.87;100419.94;4993508;28;20493;-61
2021/06/27 03:47:12;;;;;;;13.75;10.00;;;;;;;17.99;75.55;100422.59;4992847;28;20058;-57
2021/06/27 03:49:41;;;;;;;11.10;9.38;;;;;;;18.02;75.65;100424.19;4990115;28;20453;-59
2021/06/27 03:52:08;;;;;;;10.60;9.50;;;;;;;18.04;75.57;100423.13;4995683;28;20061;-58
2021/06/27 03:54:34;;;;;;;13.20;9.25;;;;;;;18.09;75.26;100426.31;4994748;28;20493;-61
2021/06/27 03:57:01;;;;;;;11.13;9.20;;;;;;;18.09;75.44;100420.09;4998268;28;20057;-60
2021/06/27 03:59:27;;;;;;;10.77;9.68;;;;;;;18.10;75.22;100429.84;5000336;28;20065;-61
2021/06/27 04:01:54;;;;;;;11.88;9.48;;;;;;;18.08;75.33;100429.94;4995051;28;20421;-59
2021/06/27 04:04:20;;;;;;;11.13;10.00;;;;;;;18.13;75.14;100434.94;4997226;28;20079;-61
2021/06/27 04:06:47;;;;;;;11.32;10.13;;;;;;;18.12;74.93;100430.53;4997140;28;20060;-60
2021/06/27 04:09:13;;;;;;;12.95;10.13;;;;;;;18.12;75.30;100428.72;4993137;28;20061;-60
2021/06/27 04:11:40;;;;;;;14.70;10.50;;;;;;;18.11;75.11;100426.16;4998152;28;20061;-60
2021/06/27 04:14:06;;;;;;;13.90;9.75;;;;;;;18.08;75.41;100424.59;4998440;28;20057;-60
2021/06/27 04:16:33;;;;;;;11.90;9.85;;;;;;;18.08;75.37;100427.28;4993863;28;20045;-60
2021/06/27 04:19:00;;;;;;;12.38;10.38;;;;;;;18.04;75.28;100424.94;4993262;28;20045;-58
2021/06/27 04:21:27;;;;;;;11.77;10.55;;;;;;;18.01;75.54;100419.81;4994783;28;20149;-61
2021/06/27 04:23:53;;;;;;;12.02;10.13;;;;;;;17.99;75.89;100425.28;4996913;28;20045;-59
2021/06/27 04:26:20;;;;;;;13.38;10.77;;;;;;;17.99;76.12;100430.63;4989770;28;20057;-60
2021/06/27 04:28:47;;;;;;;10.82;9.60;;;;;;;18.00;76.31;100434.19;4992232;28;20483;-60
2021/06/27 04:31:13;;;;;;;12.10;10.02;;;;;;;18.00;76.23;100435.03;4997316;28;20058;-61
2021/06/27 04:33:40;;;;;;;12.27;10.70;;;;;;;18.02;75.87;100429.56;4992126;28;20115;-60
2021/06/27 04:36:06;;;;;;;13.32;10.18;;;;;;;18.02;75.73;100424.19;4995480;28;20050;-60
2021/06/27 04:38:33;;;;;;;11.48;9.93;;;;;;;18.02;75.91;100429.56;4997176;28;20115;-61
2021/06/27 04:40:59;;;;;;;12.57;9.75;;;;;;;18.02;75.73;100425.06;4995982;28;20062;-61
2021/06/27 04:43:26;;;;;;;11.10;9.93;;;;;;;18.09;75.89;100425.44;4998202;28;20140;-60
2021/06/27 04:45:53;;;;;;;12.23;10.20;;;;;;;18.12;75.28;100431.41;5007400;28;20050;-60
2021/06/27 04:48:19;;;;;;;12.70;9.30;;;;;;;18.16;75.51;100421.28;4996416;28;20069;-60
2021/06/27 04:50:47;;;;;;;10.75;9.65;;;;;;;18.22;75.34;100426.19;4993944;28;20050;-60
2021/06/27 04:53:14;;;;;;;13.20;9.77;;;;;;;18.30;74.89;100429.09;4994596;28;20053;-58
2021/06/27 04:55:42;;;;;;;10.90;9.65;;;;;;;18.40;75.04;100427.44;4989846;28;20052;-60
2021/06/27 04:58:08;;;;;;;10.43;9.32;;;;;;;18.50;74.49;100433.75;4995735;28;20056;-60
2021/06/27 05:00:35;;;;;;;11.13;9.70;;;;;;;18.63;73.80;100435.50;4997179;28;20041;-61
2021/06/27 05:03:02;;;;;;;11.52;9.68;;;;;;;18.65;73.49;100433.53;4999583;28;20503;-60
2021/06/27 05:05:29;;;;;;;11.07;9.20;;;;;;;18.73;73.96;100431.13;4995190;28;20075;-60
2021/06/27 05:07:55;;;;;;;12.82;9.32;;;;;;;18.84;73.03;100428.41;4996609;28;20049;-60
2021/06/27 05:10:22;;;;;;;10.23;9.05;;;;;;;18.93;72.83;100430.34;4998397;28;20393;-58
2021/06/27 05:12:49;;;;;;;11.48;9.07;;;;;;;18.95;71.96;100436.44;4991043;28;20589;-61
2021/06/27 05:15:16;;;;;;;12.63;9.48;;;;;;;18.97;71.86;100436.31;4990527;28;20815;-60
2021/06/27 05:17:42;;;;;;;10.07;9.07;;;;;;;19.02;71.63;100434.97;5002398;28;20061;-60
2021/06/27 05:20:09;;;;;;;10.18;9.18;;;;;;;19.13;70.71;100436.78;5000758;28;20073;-60
2021/06/27 05:22:36;;;;;;;9.80;8.80;;;;;;;19.24;71.27;100445.66;4997493;28;20973;-58
2021/06/27 05:25:02;;;;;;;10.18;8.75;;;;;;;19.41;70.25;100438.88;5002717;28;20501;-60
2021/06/27 05:27:29;;;;;;;9.88;8.85;;;;;;;19.56;70.10;100443.00;5003502;28;20054;-60
2021/06/27 05:29:55;;;;;;;9.32;8.38;;;;;;;19.71;69.60;100432.81;5010043;28;20054;-60
2021/06/27 05:32:22;;;;;;;10.30;9.27;;;;;;;19.85;69.25;100432.50;5020485;28;20057;-60
2021/06/27 05:34:48;;;;;;;9.80;8.90;;;;;;;19.91;67.73;100429.28;5019386;28;20049;-59
2021/06/27 05:37:15;;;;;;;10.75;8.80;;;;;;;19.98;68.31;100418.88;5015496;28;20053;-60
2021/06/27 05:39:41;;;;;;;10.98;9.27;;;;;;;20.02;67.46;100419.44;5017583;28;20051;-60
2021/06/27 05:42:08;;;;;;;10.85;8.60;;;;;;;20.02;67.02;100414.94;5023872;28;20049;-59
2021/06/27 05:44:34;;;;;;;9.65;8.68;;;;;;;20.00;67.45;100413.34;5028140;28;20057;-60
2021/06/27 05:47:01;;;;;;;10.18;8.50;;;;;;;19.96;67.42;100412.78;5020633;28;20417;-60
2021/06/27 05:49:28;;;;;;;10.43;9.38;;;;;;;19.87;67.09;100403.66;5024691;28;20128;-59
2021/06/27 05:51:54;;;;;;;10.80;9.00;;;;;;;19.78;67.73;100420.59;5020022;28;20520;-61
2021/06/27 05:54:21;;;;;;;9.18;8.27;;;;;;;19.68;68.16;100421.47;5020897;28;20421;-59
2021/06/27 05:56:47;;;;;;;12.18;8.52;;;;;;;19.63;68.10;100421.88;5015980;28;20551;-61
2021/06/27 05:59:14;;;;;;;11.70;10.05;;;;;;;19.65;68.71;100419.06;5016044;28;20056;-60
2021/06/27 06:01:40;;;;;;;11.13;9.05;;;;;;;19.68;68.33;100413.41;5018444;28;20046;-59
2021/06/27 06:04:07;;;;;;;9.60;8.73;;;;;;;19.69;68.88;100412.44;5022536;28;20141;-59
2021/06/27 06:06:33;;;;;;;10.98;9.23;;;;;;;19.70;68.89;100408.75;5027881;28;20049;-58
2021/06/27 06:09:00;;;;;;;13.57;8.80;;;;;;;19.75;68.97;100414.59;5020976;28;20053;-58
2021/06/27 06:11:27;;;;;;;10.65;9.02;;;;;;;19.82;68.72;100418.50;5023750;28;20037;-59
2021/06/27 06:13:54;;;;;;;9.35;8.27;;;;;;;19.87;68.74;100424.31;5021796;28;20049;-60
2021/06/27 06:16:21;;;;;;;10.07;9.13;;;;;;;20.00;68.07;100419.59;5005107;28;20076;-60
2021/06/27 06:18:48;;;;;;;9.45;8.55;;;;;;;20.40;67.05;100424.25;5020221;28;20057;-58
2021/06/27 06:21:15;;;;;;;9.85;8.48;;;;;;;20.75;65.01;100426.53;5020454;28;20048;-57
2021/06/27 06:23:42;;;;;;;10.10;8.52;;;;;;;21.08;64.84;100428.91;5017678;28;20342;-61
2021/06/27 06:26:09;;;;;;;10.35;8.65;;;;;;;21.35;63.17;100426.41;5017680;28;20049;-60
2021/06/27 06:28:38;;;;;;;9.90;8.75;;;;;;;21.62;62.97;100420.31;5013506;28;20053;-60
2021/06/27 06:31:05;;;;;;;9.88;8.88;;;;;;;22.04;61.20;100420.88;5017901;28;20047;-60
2021/06/27 06:33:32;;;;;;;9.75;8.75;;;;;;;22.42;60.75;100421.78;5023998;28;20048;-59
2021/06/27 06:35:58;;;;;;;9.77;8.65;;;;;;;22.87;58.93;100412.94;5019433;28;20405;-59
2021/06/27 06:38:25;;;;;;;8.82;7.82;;;;;;;23.14;56.48;100410.19;5015299;28;20057;-59
2021/06/27 06:40:51;;;;;;;10.75;7.85;;;;;;;23.08;56.73;100408.97;5013114;28;20504;-59
2021/06/27 06:43:18;;;;;;;9.50;8.50;;;;;;;23.04;56.70;100410.28;5019238;28;20420;-61
2021/06/27 06:45:44;;;;;;;9.40;8.43;;;;;;;23.12;56.94;100409.53;5012600;28;20053;-60
2021/06/27 06:48:11;;;;;;;13.05;8.45;;;;;;;23.07;57.32;100407.28;5015542;28;20795;-59
2021/06/27 06:50:38;;;;;;;8.88;7.97;;;;;;;23.02;58.32;100408.72;5019679;28;20033;-57
2021/06/27 06:53:05;;;;;;;9.00;8.20;;;;;;;22.98;57.76;100408.16;5022473;28;20046;-58
2021/06/27 06:55:32;;;;;;;9.23;8.20;;;;;;;23.04;58.22;100412.13;5012579;28;20063;-61
2021/06/27 06:57:58;;;;;;;9.10;8.20;;;;;;;23.29;58.12;100405.16;5021383;28;20092;-59
2021/06/27 07:00:25;;;;;;;9.55;8.40;;;;;;;23.41;57.47;100410.16;5010559;28;20050;-60
2021/06/27 07:02:51;;;;;;;11.70;8.10;;;;;;;23.53;57.90;100413.50;5020159;28;20132;-62
2021/06/27 07:05:18;;;;;;;15.55;7.93;;;;;;;23.47;58.50;100415.94;5013577;28;20049;-59
2021/06/27 07:07:45;;;;;;;12.10;8.00;;;;;;;23.39;57.84;100422.13;5013360;28;20424;-58
2021/06/27 07:10:13;;;;;;;10.57;8.23;;;;;;;23.36;58.31;100427.84;5008852;28;20068;-60
2021/06/27 07:12:42;;;;;;;9.10;8.20;;;;;;;23.50;58.86;100429.16;5013507;28;20055;-60
2021/06/27 07:15:10;;;;;;;10.35;7.55;;;;;;;23.59;58.73;100430.97;5007633;28;20200;-61
2021/06/27 07:17:37;;;;;;;9.48;7.88;;;;;;;23.82;57.59;100426.78;5012163;28;20056;-60
2021/06/27 07:20:06;;;;;;;8.82;7.93;;;;;;;24.29;57.76;100426.47;5012485;28;20053;-58
2021/06/27 07:22:32;;;;;;;8.50;7.60;;;;;;;24.54;55.98;100422.06;5018856;28;20059;-61
2021/06/27 07:24:59;;;;;;;8.57;7.35;;;;;;;24.47;54.95;100417.28;5009984;28;20055;-59
2021/06/27 07:27:25;;;;;;;9.68;8.00;;;;;;;24.61;56.31;100423.09;5011600;28;20056;-60
2021/06/27 07:29:52;;;;;;;8.73;7.85;;;;;;;24.48;54.51;100420.84;5014433;28;20050;-60
2021/06/27 07:32:18;;;;;;;12.00;8.02;;;;;;;24.32;56.52;100415.34;4992329;28;20058;-59
2021/06/27 07:34:45;;;;;;;8.93;7.18;;;;;;;24.37;55.21;100415.72;5010250;28;20054;-60
2021/06/27 07:37:11;;;;;;;11.80;7.80;;;;;;;24.68;55.34;100419.59;5028954;28;20053;-59
2021/06/27 07:39:38;;;;;;;8.63;7.65;;;;;;;25.05;56.03;100405.72;5018574;28;20072;-57
2021/06/27 07:42:05;;;;;;;8.70;7.70;;;;;;;25.37;53.59;100406.78;5018037;28;20045;-60
2021/06/27 07:44:31;;;;;;;9.10;7.65;;;;;;;25.51;51.74;100411.56;5020841;28;20597;-60
2021/06/27 07:46:58;;;;;;;8.27;7.35;;;;;;;25.64;53.05;100406.53;5042728;28;20048;-60
2021/06/27 07:49:24;;;;;;;7.70;7.00;;;;;;;25.91;51.74;100402.63;5040161;28;20049;-58
2021/06/27 07:51:51;;;;;;;8.57;7.43;;;;;;;26.02;51.09;100407.69;5039941;28;20045;-60
2021/06/27 07:54:17;;;;;;;8.35;7.53;;;;;;;25.86;50.34;100411.28;5041896;28;20057;-60
2021/06/27 07:56:44;;;;;;;8.10;7.40;;;;;;;25.33;52.05;100398.19;5042338;28;20060;-60
2021/06/27 07:59:13;;;;;;;9.35;7.53;;;;;;;25.16;52.99;100407.28;5047773;28;20049;-59
2021/06/27 08:01:39;;;;;;;9.35;7.78;;;;;;;25.06;52.78;100404.69;5035177;28;20135;-60
2021/06/27 08:04:06;;;;;;;8.38;7.63;;;;;;;24.88;53.56;100400.38;5037995;28;20055;-59
2021/06/27 08:06:32;;;;;;;8.35;7.55;;;;;;;24.80;54.15;100404.75;5002431;28;20037;-60
2021/06/27 08:08:59;;;;;;;8.55;7.65;;;;;;;24.82;54.62;100402.75;5008744;28;20057;-59
2021/06/27 08:11:26;;;;;;;8.90;7.97;;;;;;;24.85;53.85;100408.84;5033352;28;20049;-60
2021/06/27 08:13:52;;;;;;;9.07;7.88;;;;;;;24.92;54.08;100415.28;5031177;28;20053;-60
2021/06/27 08:16:19;;;;;;;9.05;8.10;;;;;;;24.95;54.33;100402.31;5026750;28;20053;-59
2021/06/27 08:18:45;;;;;;;9.57;8.68;;;;;;;25.01;53.73;100403.53;5020542;28;20053;-58
2021/06/27 08:21:12;;;;;;;8.82;7.72;;;;;;;24.95;53.59;100406.88;5037849;28;20076;-60
2021/06/27 08:23:38;;;;;;;9.10;8.27;;;;;;;24.94;54.03;100405.19;5033927;28;20054;-60
2021/06/27 08:26:05;;;;;;;9.98;7.82;;;;;;;25.19;54.73;100406.94;5035384;28;20471;-59
2021/06/27 08:28:32;;;;;;;8.60;7.45;;;;;;;25.42;53.72;100399.88;5035844;28;20059;-60
2021/06/27 08:30:59;;;;;;;9.07;7.82;;;;;;;25.43;53.14;100407.00;5033325;28;20107;-59
2021/06/27 08:33:25;;;;;;;8.50;7.70;;;;;;;25.45;54.46;100394.13;5032877;28;20651;-60
2021/06/27 08:35:52;;;;;;;8.20;7.35;;;;;;;25.55;54.46;100399.38;5027850;28;20053;-60
2021/06/27 08:38:18;;;;;;;8.35;7.43;;;;;;;25.63;53.09;100401.28;5029485;28;20055;-60
2021/06/27 08:40:45;;;;;;;8.10;7.30;;;;;;;25.67;53.97;100392.63;5032884;28;20045;-59
2021/06/27 08:43:12;;;;;;;10.00;7.70;;;;;;;25.81;52.96;100399.25;5020305;28;20045;-60
2021/06/27 08:45:52;;;;;;;8.02;7.15;;;;;;;25.80;53.11;100400.28;5039780;28;20061;-60
2021/06/27 08:48:21;;;;;;;11.20;7.28;;;;;;;25.86;52.93;100394.16;5031609;28;20053;-60
2021/06/27 08:50:52;;;;;;;8.10;7.40;;;;;;;25.92;53.17;100406.19;5026728;28;20049;-59
2021/06/27 08:53:20;;;;;;;8.05;6.55;;;;;;;26.09;52.39;100400.59;5031291;28;20065;-59
2021/06/27 08:56:04;;;;;;;8.65;6.97;;;;;;;26.19;52.03;100398.53;5026121;28;20045;-60
2021/06/27 08:58:42;;;;;;;8.68;7.60;;;;;;;26.20;51.20;100392.06;5030047;28;20136;-59
2021/06/27 09:01:16;;;;;;;8.60;7.35;;;;;;;26.21;51.05;100387.50;5037069;28;20405;-60
2021/06/27 09:03:46;;;;;;;7.97;7.18;;;;;;;26.10;50.46;100402.28;5017475;28;20057;-58
2021/06/27 09:06:33;;;;;;;8.10;7.28;;;;;;;26.02;50.57;100377.00;5029344;28;20116;-60
2021/06/27 09:09:18;;;;;;;9.25;7.10;;;;;;;26.03;50.72;100393.13;5025248;28;20057;-57
2021/06/27 09:11:57;;;;;;;7.57;6.80;;;;;;;25.91;49.71;100388.22;5030993;28;20061;-59
2021/06/27 09:14:39;;;;;;;7.15;6.43;;;;;;;25.89;49.67;100385.66;5021511;28;20095;-60
2021/06/27 09:17:23;;;;;;;8.65;7.03;;;;;;;26.02;50.01;100391.41;5036310;28;20048;-59
2021/06/27 09:19:56;;;;;;;9.38;6.88;;;;;;;26.02;50.06;100396.00;5031975;28;20060;-60
2021/06/27 09:22:49;;;;;;;7.15;6.55;;;;;;;26.11;50.16;100400.41;5038450;28;20061;-57
2021/06/27 09:25:20;;;;;;;7.43;6.82;;;;;;;26.25;49.46;100391.56;5030092;28;20049;-59
2021/06/27 09:28:05;;;;;;;6.80;6.22;;;;;;;26.16;48.65;100387.16;5031198;28;20044;-58
2021/06/27 09:30:35;;;;;;;7.05;6.45;;;;;;;26.12;49.62;100386.69;5019993;28;20055;-60
2021/06/27 09:33:09;;;;;;;7.47;6.78;;;;;;;26.07;48.03;100383.63;5035224;28;20059;-59
2021/06/27 09:35:37;;;;;;;7.45;6.82;;;;;;;26.10;48.79;100375.16;5029168;28;20059;-58
2021/06/27 09:38:20;;;;;;;7.55;6.68;;;;;;;26.09;48.20;100373.44;5032078;28;20055;-59
2021/06/27 09:40:55;;;;;;;7.50;6.70;;;;;;;25.93;48.22;100359.91;5023159;28;20054;-59
2021/06/27 09:43:24;;;;;;;7.70;6.80;;;;;;;25.97;48.85;100365.84;5029289;28;20586;-59
2021/06/27 09:45:57;;;;;;;7.40;6.75;;;;;;;26.04;48.85;100356.81;5025793;28;20057;-60
2021/06/27 09:48:25;;;;;;;7.85;6.97;;;;;;;26.16;48.95;100363.56;5030316;28;20081;-59
2021/06/27 09:50:53;;;;;;;6.82;6.22;;;;;;;26.20;47.56;100364.94;5028050;28;20156;-59
2021/06/27 09:53:37;;;;;;;7.40;6.22;;;;;;;26.32;47.01;100359.16;5026865;28;20064;-60
2021/06/27 09:56:05;;;;;;;7.32;6.63;;;;;;;26.41;46.92;100363.56;5041503;28;20059;-59
2021/06/27 09:58:33;;;;;;;6.75;6.20;;;;;;;26.47;47.25;100362.84;5044284;28;20049;-60
2021/06/27 10:00:59;;;;;;;7.10;6.22;;;;;;;26.59;46.43;100356.03;5039054;28;20049;-60
2021/06/27 10:03:28;;;;;;;7.30;6.70;;;;;;;26.72;46.17;100350.88;5035208;28;20153;-60
2021/06/27 10:06:13;;;;;;;7.28;6.57;;;;;;;26.91;45.93;100349.59;5041267;28;20053;-59
2021/06/27 10:08:40;;;;;;;7.63;6.55;;;;;;;26.96;45.30;100332.75;5043666;28;20046;-59
2021/06/27 10:11:13;;;;;;;6.22;5.72;;;;;;;26.89;45.47;100330.72;5046697;28;20042;-60
2021/06/27 10:13:41;;;;;;;6.25;5.75;;;;;;;26.84;44.98;100338.56;5034549;28;20049;-60
2021/06/27 10:16:11;;;;;;;6.18;5.60;;;;;;;26.78;45.30;100333.84;5039041;28;20064;-59
2021/06/27 10:18:37;;;;;;;5.80;5.32;;;;;;;26.81;44.60;100347.06;5031476;28;20131;-59
2021/06/27 10:21:04;;;;;;;5.55;5.15;;;;;;;26.83;43.51;100347.75;5035570;28;20064;-58
2021/06/27 10:23:31;;;;;;;5.60;5.13;;;;;;;26.89;43.06;100346.19;5029579;28;20456;-59
2021/06/27 10:25:58;;;;;;;5.35;4.95;;;;;;;26.95;43.39;100339.22;5029776;28;20054;-60
2021/06/27 10:28:25;;;;;;;5.72;5.22;;;;;;;26.99;42.85;100341.41;5035383;28;20052;-60
2021/06/27 10:30:53;;;;;;;5.18;4.72;;;;;;;27.09;42.69;100335.72;5019508;28;20053;-61
2021/06/27 10:33:20;;;;;;;4.72;4.20;;;;;;;27.16;40.83;100339.41;5028297;28;20045;-59
2021/06/27 10:35:49;;;;;;;5.20;4.70;;;;;;;27.14;41.19;100334.16;5031962;28;20045;-59
2021/06/27 10:38:20;;;;;;;5.18;4.68;;;;;;;27.24;40.98;100334.75;5037630;28;20072;-60
2021/06/27 10:40:52;;;;;;;5.32;4.93;;;;;;;27.29;40.84;100330.66;5020237;28;20053;-59
2021/06/27 10:43:19;;;;;;;5.20;4.80;;;;;;;27.29;40.61;100331.50;5030026;28;20057;-60
2021/06/27 10:45:46;;;;;;;5.13;4.72;;;;;;;27.28;40.59;100318.94;5037538;28;20424;-59
2021/06/27 10:48:34;;;;;;;5.00;4.50;;;;;;;27.33;40.68;100321.13;5025177;28;20060;-59
2021/06/27 10:51:03;;;;;;;5.20;4.70;;;;;;;27.32;41.07;100317.56;5016894;28;20044;-62
2021/06/27 10:54:22;;;;;;;5.72;4.75;;;;;;;27.39;40.98;100313.06;5032564;28;21613;-59
2021/06/27 10:56:58;;;;;;;5.03;4.60;;;;;;;27.32;41.07;100325.72;4969456;28;20057;-60
2021/06/27 10:59:40;;;;;;;5.10;4.70;;;;;;;27.17;40.64;100320.22;5043185;28;20048;-61
2021/06/27 11:02:22;;;;;;;5.10;4.63;;;;;;;27.27;40.91;100327.28;5031247;28;20042;-60
2021/06/27 11:04:52;;;;;;;4.95;4.55;;;;;;;27.55;40.13;100315.63;5038077;28;20508;-59
2021/06/27 11:07:40;;;;;;;4.97;4.57;;;;;;;27.87;39.59;100313.66;5020762;28;20056;-62
2021/06/27 11:10:19;;;;;;;4.68;4.28;;;;;;;28.05;39.09;100316.03;5029074;28;20057;-59
2021/06/27 11:12:54;;;;;;;5.28;4.88;;;;;;;28.24;38.88;100310.06;5033915;28;20049;-59
2021/06/27 11:15:26;;;;;;;5.00;4.60;;;;;;;28.40;37.82;100315.31;5033236;28;20054;-60
2021/06/27 11:17:58;;;;;;;5.00;4.50;;;;;;;28.36;38.08;100302.25;5028235;28;20060;-61
2021/06/27 11:20:28;;;;;;;5.70;4.63;;;;;;;28.26;38.49;100308.00;5026902;28;20496;-60
2021/06/27 11:22:56;;;;;;;5.13;4.65;;;;;;;28.11;38.68;100307.97;5033037;28;20050;-62
2021/06/27 11:25:39;;;;;;;5.22;4.82;;;;;;;28.15;38.85;100301.13;5028954;28;20072;-60
2021/06/27 11:28:18;;;;;;;5.30;4.80;;;;;;;28.22;38.52;100291.19;5033641;28;20127;-60